createdAt,value
2016-12-01T00:00:47.980Z,84.83
2016-12-01T00:01:56.688Z,85.02
2016-12-01T00:03:05.368Z,84.92
2016-12-01T00:04:14.048Z,85.59
2016-12-01T00:05:22.730Z,85.3
2016-12-01T00:06:31.421Z,85.21
2016-12-01T00:07:40.102Z,84.74
2016-12-01T00:08:48.795Z,84.64
2016-12-01T00:09:57.474Z,85.3
2016-12-01T00:11:06.155Z,85.4
2016-12-01T00:12:14.835Z,86.25
2016-12-01T00:13:23.514Z,86.44
2016-12-01T00:14:32.194Z,85.96
2016-12-01T00:15:40.875Z,85.11
2016-12-01T00:16:49.559Z,83.98
2016-12-01T00:17:58.239Z,83.7
2016-12-01T00:19:06.919Z,84.45
2016-12-01T00:20:15.597Z,84.92
2016-12-01T00:21:24.281Z,84.36
2016-12-01T00:22:32.966Z,83.98
2016-12-01T00:23:41.680Z,82.95
2016-12-01T00:24:50.361Z,83.04
2016-12-01T00:25:59.044Z,82.95
2016-12-01T00:27:07.731Z,82.76
2016-12-01T00:28:16.412Z,83.8
2016-12-01T00:29:25.094Z,84.36
2016-12-01T00:30:33.775Z,84.08
2016-12-01T00:31:42.452Z,83.84
2016-12-01T00:32:51.144Z,83.74
2016-12-01T00:33:59.833Z,82.8
2016-12-01T00:35:08.514Z,81.57
2016-12-01T00:36:17.194Z,81.2
2016-12-01T00:37:25.877Z,81.1
2016-12-01T00:38:34.560Z,81.38
2016-12-01T00:39:43.243Z,81.38
2016-12-01T00:40:51.952Z,82.8
2016-12-01T00:42:00.634Z,83.08
2016-12-01T00:43:09.324Z,82.99
2016-12-01T00:44:18.003Z,84.59
2016-12-01T00:45:26.692Z,85.06
2016-12-01T00:46:35.378Z,85.06
2016-12-01T00:47:44.055Z,84.88
2016-12-01T00:48:52.735Z,84.97
2016-12-01T00:50:01.424Z,85.44
2016-12-01T00:51:10.128Z,84.59
2016-12-01T00:52:18.809Z,84.5
2016-12-01T00:53:27.804Z,84.03
2016-12-01T00:54:36.489Z,83.65
2016-12-01T00:55:45.171Z,84.5
2016-12-01T00:56:53.849Z,83.93
2016-12-01T00:58:02.578Z,84.31
2016-12-01T00:59:11.262Z,84.03
2016-12-01T01:00:19.942Z,84.31
2016-12-01T01:01:28.653Z,84.31
2016-12-01T01:02:37.329Z,84.5
2016-12-01T01:03:46.009Z,84.36
2016-12-01T01:04:54.694Z,84.97
2016-12-01T01:06:03.403Z,85.72
2016-12-01T01:07:12.086Z,85.06
2016-12-01T01:08:20.765Z,84.5
2016-12-01T01:09:29.456Z,83.93
2016-12-01T01:10:38.142Z,83.93
2016-12-01T01:11:46.820Z,84.22
2016-12-01T01:12:55.504Z,84.03
2016-12-01T01:14:04.190Z,84.31
2016-12-01T01:15:12.874Z,84.92
2016-12-01T01:16:21.558Z,85.02
2016-12-01T01:17:30.571Z,85.02
2016-12-01T01:18:39.254Z,85.02
2016-12-01T01:19:47.936Z,85.59
2016-12-01T01:20:56.617Z,85.21
2016-12-01T01:22:05.301Z,85.11
2016-12-01T01:23:13.984Z,85.11
2016-12-01T01:24:22.666Z,84.55
2016-12-01T01:25:31.375Z,84.83
2016-12-01T01:26:40.371Z,85.87
2016-12-01T01:27:49.055Z,85.68
2016-12-01T01:28:57.740Z,85.68
2016-12-01T01:30:06.436Z,85.49
2016-12-01T01:31:15.120Z,85.4
2016-12-01T01:32:23.801Z,85.96
2016-12-01T01:33:32.482Z,86.06
2016-12-01T01:34:41.165Z,85.87
2016-12-01T01:35:49.853Z,85.87
2016-12-01T01:36:58.536Z,85.87
2016-12-01T01:38:07.559Z,86.15
2016-12-01T01:39:16.240Z,86.25
2016-12-01T01:40:24.917Z,86.34
2016-12-01T01:41:33.603Z,86.91
2016-12-01T01:42:42.289Z,86.91
2016-12-01T01:43:50.979Z,87.76
2016-12-01T01:44:59.659Z,88.51
2016-12-01T01:46:08.352Z,88.23
2016-12-01T01:47:17.347Z,87.24
2016-12-01T01:48:26.032Z,87.24
2016-12-01T01:49:34.715Z,87.33
2016-12-01T01:50:43.395Z,87.99
2016-12-01T01:51:52.078Z,87.52
2016-12-01T01:53:01.072Z,86.57
2016-12-01T01:54:09.751Z,87.33
2016-12-01T01:55:18.431Z,87.33
2016-12-01T01:56:27.118Z,86.86
2016-12-01T01:57:35.805Z,86.01
2016-12-01T01:58:44.490Z,85.53
2016-12-01T01:59:53.173Z,85.25
2016-12-01T02:01:01.857Z,86.1
2016-12-01T02:02:10.579Z,86.57
2016-12-01T02:03:19.280Z,87.62
2016-12-01T02:04:27.965Z,88.23
2016-12-01T02:05:36.648Z,88.89
2016-12-01T02:06:45.330Z,88.6
2016-12-01T02:07:54.014Z,88.6
2016-12-01T02:09:02.700Z,88.98
2016-12-01T02:10:11.379Z,89.36
2016-12-01T02:11:20.062Z,89.27
2016-12-01T02:12:28.744Z,88.89
2016-12-01T02:13:37.429Z,87.43
2016-12-01T02:14:46.108Z,86.48
2016-12-01T02:15:54.792Z,85.91
2016-12-01T02:17:03.503Z,85.72
2016-12-01T02:18:12.183Z,85.44
2016-12-01T02:19:20.870Z,84.88
2016-12-01T02:20:29.552Z,84.69
2016-12-01T02:21:38.238Z,84.78
2016-12-01T02:22:46.940Z,85.44
2016-12-01T02:23:55.624Z,85.72
2016-12-01T02:25:04.308Z,86.29
2016-12-01T02:26:12.989Z,86.01
2016-12-01T02:27:21.712Z,86.57
2016-12-01T02:28:30.398Z,86.67
2016-12-01T02:29:39.088Z,86.19
2016-12-01T02:30:47.768Z,85.44
2016-12-01T02:31:56.449Z,85.16
2016-12-01T02:33:05.133Z,85.72
2016-12-01T02:34:13.819Z,86.38
2016-12-01T02:35:22.498Z,85.91
2016-12-01T02:36:31.176Z,85.72
2016-12-01T02:37:39.859Z,85.63
2016-12-01T02:38:48.541Z,84.12
2016-12-01T02:39:57.223Z,83.08
2016-12-01T02:41:05.907Z,82.89
2016-12-01T02:42:14.587Z,82.32
2016-12-01T02:43:23.270Z,81.76
2016-12-01T02:44:31.949Z,82.14
2016-12-01T02:45:40.633Z,81.29
2016-12-01T02:46:49.347Z,80.63
2016-12-01T02:47:58.034Z,79.97
2016-12-01T02:49:06.716Z,81.2
2016-12-01T02:50:15.399Z,80.82
2016-12-01T02:51:24.086Z,80.06
2016-12-01T02:52:32.768Z,81.67
2016-12-01T02:53:41.449Z,83.08
2016-12-01T02:54:50.127Z,84.22
2016-12-01T02:55:58.804Z,83.84
2016-12-01T02:57:07.488Z,85.06
2016-12-01T02:58:16.169Z,85.44
2016-12-01T02:59:24.858Z,85.72
2016-12-01T03:00:33.547Z,85.63
2016-12-01T03:01:42.555Z,85.82
2016-12-01T03:02:51.242Z,85.72
2016-12-01T03:03:59.921Z,85.44
2016-12-01T03:05:08.604Z,85.25
2016-12-01T03:06:17.291Z,84.41
2016-12-01T03:07:25.971Z,84.5
2016-12-01T03:08:34.652Z,85.25
2016-12-01T03:09:43.335Z,85.82
2016-12-01T03:10:52.333Z,86.29
2016-12-01T03:12:01.013Z,85.63
2016-12-01T03:13:10.011Z,85.44
2016-12-01T03:14:18.691Z,85.35
2016-12-01T03:15:27.377Z,85.82
2016-12-01T03:16:36.057Z,86.1
2016-12-01T03:17:44.737Z,86.29
2016-12-01T03:18:53.420Z,86.86
2016-12-01T03:20:02.100Z,86.48
2016-12-01T03:21:10.783Z,85.82
2016-12-01T03:22:19.461Z,85.35
2016-12-01T03:23:28.141Z,85.53
2016-12-01T03:24:36.824Z,86.01
2016-12-01T03:25:45.507Z,86.38
2016-12-01T03:26:54.188Z,86.19
2016-12-01T03:28:02.871Z,85.82
2016-12-01T03:29:11.552Z,86.48
2016-12-01T03:30:20.237Z,86.76
2016-12-01T03:31:28.921Z,86.01
2016-12-01T03:32:37.632Z,85.91
2016-12-01T03:33:46.310Z,85.72
2016-12-01T03:34:55.306Z,86.48
2016-12-01T03:36:04.020Z,86.86
2016-12-01T03:37:12.701Z,86.48
2016-12-01T03:38:21.379Z,85.44
2016-12-01T03:39:30.058Z,85.72
2016-12-01T03:40:38.739Z,86.1
2016-12-01T03:41:47.420Z,85.91
2016-12-01T03:42:56.102Z,87.24
2016-12-01T03:44:04.794Z,87.43
2016-12-01T03:45:13.472Z,87.24
2016-12-01T03:46:22.186Z,87.8
2016-12-01T03:47:30.869Z,88.28
2016-12-01T03:48:39.547Z,88.56
2016-12-01T03:49:48.222Z,88.28
2016-12-01T03:50:56.905Z,87.14
2016-12-01T03:52:05.587Z,86.76
2016-12-01T03:53:14.272Z,86.29
2016-12-01T03:54:22.956Z,86.29
2016-12-01T03:55:32.321Z,86.1
2016-12-01T03:56:41.003Z,85.63
2016-12-01T03:57:49.681Z,85.72
2016-12-01T03:58:58.363Z,85.72
2016-12-01T04:00:07.047Z,85.25
2016-12-01T04:01:15.730Z,83.84
2016-12-01T04:02:24.410Z,84.5
2016-12-01T04:03:33.098Z,84.5
2016-12-01T04:04:41.793Z,85.25
2016-12-01T04:05:50.476Z,85.53
2016-12-01T04:06:59.156Z,85.44
2016-12-01T04:08:07.837Z,85.53
2016-12-01T04:09:16.524Z,85.53
2016-12-01T04:10:25.201Z,85.91
2016-12-01T04:11:33.893Z,86.57
2016-12-01T04:12:42.577Z,85.82
2016-12-01T04:13:51.255Z,85.06
2016-12-01T04:14:59.935Z,83.74
2016-12-01T04:16:08.650Z,82.32
2016-12-01T04:17:17.336Z,81.85
2016-12-01T04:18:26.019Z,82.61
2016-12-01T04:19:34.710Z,81.95
2016-12-01T04:20:43.392Z,81.01
2016-12-01T04:21:52.111Z,81.2
2016-12-01T04:23:00.804Z,81.38
2016-12-01T04:24:09.486Z,81.57
2016-12-01T04:25:18.167Z,81.29
2016-12-01T04:26:26.849Z,80.53
2016-12-01T04:27:35.533Z,81.01
2016-12-01T04:28:44.214Z,80.82
2016-12-01T04:29:52.893Z,81.1
2016-12-01T04:31:01.580Z,80.53
2016-12-01T04:32:10.263Z,80.63
2016-12-01T04:33:18.949Z,80.34
2016-12-01T04:34:27.630Z,80.72
2016-12-01T04:35:36.316Z,81.01
2016-12-01T04:36:45.001Z,82.89
2016-12-01T04:37:53.684Z,84.59
2016-12-01T04:39:02.392Z,84.5
2016-12-01T04:40:11.075Z,85.06
2016-12-01T04:41:19.759Z,85.72
2016-12-01T04:42:28.443Z,86.57
2016-12-01T04:43:37.125Z,86.38
2016-12-01T04:44:45.810Z,86.38
2016-12-01T04:45:54.490Z,86.38
2016-12-01T04:47:03.177Z,86.1
2016-12-01T04:48:11.860Z,86.95
2016-12-01T04:49:20.537Z,86.48
2016-12-01T04:50:29.223Z,86.19
2016-12-01T04:51:37.904Z,86.38
2016-12-01T04:52:46.900Z,86.38
2016-12-01T04:53:55.589Z,86.38
2016-12-01T04:55:04.274Z,87.14
2016-12-01T04:56:12.956Z,86.48
2016-12-01T04:57:21.635Z,86.95
2016-12-01T04:58:30.315Z,87.52
2016-12-01T04:59:39.011Z,87.62
2016-12-01T05:00:47.696Z,87.33
2016-12-01T05:01:56.385Z,87.14
2016-12-01T05:03:05.069Z,87.71
2016-12-01T05:04:13.749Z,87.19
2016-12-01T05:05:22.428Z,87.66
2016-12-01T05:06:31.115Z,88.32
2016-12-01T05:07:39.799Z,88.7
2016-12-01T05:08:48.478Z,88.42
2016-12-01T05:09:57.164Z,88.7
2016-12-01T05:11:05.846Z,89.36
2016-12-01T05:12:14.540Z,90.12
2016-12-01T05:13:23.223Z,90.4
2016-12-01T05:14:31.902Z,89.74
2016-12-01T05:15:40.585Z,89.93
2016-12-01T05:16:49.264Z,91.35
2016-12-01T05:17:57.947Z,91.16
2016-12-01T05:19:06.633Z,90.78
2016-12-01T05:20:15.312Z,91.44
2016-12-01T05:21:23.992Z,92.19
2016-12-01T05:22:32.677Z,92.38
2016-12-01T05:23:41.357Z,93.51
2016-12-01T05:24:50.039Z,93.8
2016-12-01T05:25:58.723Z,94.18
2016-12-01T05:27:07.407Z,94.46
2016-12-01T05:28:16.088Z,93.23
2016-12-01T05:29:24.777Z,93.7
2016-12-01T05:30:33.457Z,93.51
2016-12-01T05:31:42.141Z,93.51
2016-12-01T05:32:50.817Z,92.76
2016-12-01T05:33:59.521Z,92.38
2016-12-01T05:35:08.206Z,92.05
2016-12-01T05:36:16.887Z,91.49
2016-12-01T05:37:25.571Z,91.86
2016-12-01T05:38:34.254Z,91.67
2016-12-01T05:39:42.936Z,91.86
2016-12-01T05:40:51.619Z,92.14
2016-12-01T05:42:00.300Z,92.05
2016-12-01T05:43:08.979Z,91.96
2016-12-01T05:44:17.659Z,91.96
2016-12-01T05:45:26.378Z,92.43
2016-12-01T05:46:35.059Z,94.32
2016-12-01T05:47:43.739Z,94.98
2016-12-01T05:48:52.431Z,95.64
2016-12-01T05:50:01.115Z,95.36
2016-12-01T05:51:09.800Z,96.11
2016-12-01T05:52:18.487Z,96.3
2016-12-01T05:53:27.203Z,95.92
2016-12-01T05:54:35.887Z,96.48
2016-12-01T05:55:44.567Z,96.48
2016-12-01T05:56:53.279Z,96.01
2016-12-01T05:58:01.964Z,96.2
2016-12-01T05:59:10.649Z,95.87
2016-12-01T06:00:19.332Z,94.88
2016-12-01T06:01:28.020Z,95.45
2016-12-01T06:02:36.699Z,95.92
2016-12-01T06:03:45.380Z,96.48
2016-12-01T06:04:54.064Z,96.48
2016-12-01T06:06:02.749Z,96.81
2016-12-01T06:07:11.464Z,96.15
2016-12-01T06:08:20.150Z,95.97
2016-12-01T06:09:28.833Z,96.06
2016-12-01T06:10:37.512Z,95.31
2016-12-01T06:11:46.195Z,94.74
2016-12-01T06:12:54.875Z,94.46
2016-12-01T06:14:03.555Z,94.27
2016-12-01T06:15:12.234Z,94.08
2016-12-01T06:16:20.922Z,93.7
2016-12-01T06:17:29.917Z,93.42
2016-12-01T06:18:38.599Z,93.42
2016-12-01T06:19:47.281Z,92.19
2016-12-01T06:20:55.970Z,91.16
2016-12-01T06:22:04.670Z,91.35
2016-12-01T06:23:13.353Z,90.02
2016-12-01T06:24:22.041Z,90.31
2016-12-01T06:25:30.724Z,89.93
2016-12-01T06:26:39.402Z,89.93
2016-12-01T06:27:48.087Z,89.55
2016-12-01T06:28:56.767Z,89.36
2016-12-01T06:30:05.452Z,89.36
2016-12-01T06:31:14.133Z,88.7
2016-12-01T06:32:22.821Z,89.27
2016-12-01T06:33:31.815Z,88.98
2016-12-01T06:34:40.500Z,89.17
2016-12-01T06:35:49.236Z,89.36
2016-12-01T06:36:57.918Z,89.22
2016-12-01T06:38:06.617Z,89.5
2016-12-01T06:39:15.299Z,88.75
2016-12-01T06:40:23.983Z,89.12
2016-12-01T06:41:32.664Z,89.69
2016-12-01T06:42:41.364Z,88.65
2016-12-01T06:43:50.053Z,89.31
2016-12-01T06:44:58.735Z,89.4
2016-12-01T06:46:07.414Z,89.31
2016-12-01T06:47:16.098Z,88.75
2016-12-01T06:48:24.788Z,88.84
2016-12-01T06:49:33.471Z,88.56
2016-12-01T06:50:42.148Z,88.46
2016-12-01T06:51:50.828Z,89.4
2016-12-01T06:52:59.514Z,89.31
2016-12-01T06:54:08.198Z,89.4
2016-12-01T06:55:16.879Z,89.22
2016-12-01T06:56:25.563Z,89.78
2016-12-01T06:57:34.249Z,89.31
2016-12-01T06:58:42.929Z,89.88
2016-12-01T06:59:51.629Z,88.37
2016-12-01T07:01:00.319Z,88.28
2016-12-01T07:02:09.000Z,88.46
2016-12-01T07:03:17.683Z,88.46
2016-12-01T07:04:26.369Z,87.8
2016-12-01T07:05:35.056Z,87.43
2016-12-01T07:06:43.743Z,86.48
2016-12-01T07:07:52.432Z,86.48
2016-12-01T07:09:01.114Z,86.48
2016-12-01T07:10:09.792Z,87.43
2016-12-01T07:11:18.480Z,87.33
2016-12-01T07:12:27.167Z,87.33
2016-12-01T07:13:35.855Z,87.33
2016-12-01T07:14:44.540Z,88.09
2016-12-01T07:15:53.222Z,87.43
2016-12-01T07:17:01.933Z,87.62
2016-12-01T07:18:10.619Z,87.43
2016-12-01T07:19:19.301Z,87.99
2016-12-01T07:20:27.985Z,88.37
2016-12-01T07:21:36.668Z,89.12
2016-12-01T07:22:45.387Z,89.03
2016-12-01T07:23:54.071Z,88.18
2016-12-01T07:25:03.072Z,88.28
2016-12-01T07:26:11.753Z,87.8
2016-12-01T07:27:20.439Z,87.8
2016-12-01T07:28:29.123Z,87.8
2016-12-01T07:29:37.817Z,88.18
2016-12-01T07:30:46.506Z,87.8
2016-12-01T07:31:55.186Z,88.56
2016-12-01T07:33:03.866Z,88.56
2016-12-01T07:34:12.556Z,89.88
2016-12-01T07:35:21.244Z,89.4
2016-12-01T07:36:29.926Z,88.65
2016-12-01T07:37:38.609Z,89.12
2016-12-01T07:38:47.292Z,88.93
2016-12-01T07:39:55.988Z,88.93
2016-12-01T07:41:04.671Z,89.5
2016-12-01T07:42:13.356Z,89.69
2016-12-01T07:43:22.041Z,90.45
2016-12-01T07:44:30.722Z,90.64
2016-12-01T07:45:39.407Z,90.54
2016-12-01T07:46:48.100Z,89.78
2016-12-01T07:47:56.783Z,89.69
2016-12-01T07:49:05.465Z,88.65
2016-12-01T07:50:14.146Z,88.84
2016-12-01T07:51:22.829Z,88.93
2016-12-01T07:52:31.507Z,87.62
2016-12-01T07:53:40.195Z,87.05
2016-12-01T07:54:48.878Z,87.24
2016-12-01T07:55:57.558Z,86.99
2016-12-01T07:57:06.237Z,87.05
2016-12-01T07:58:14.924Z,87.56
2016-12-01T07:59:23.921Z,87.09
2016-12-01T08:00:32.603Z,86.71
2016-12-01T08:01:41.285Z,86.99
2016-12-01T08:02:49.969Z,86.62
2016-12-01T08:03:58.650Z,86.62
2016-12-01T08:05:07.332Z,86.38
2016-12-01T08:06:16.043Z,86.86
2016-12-01T08:07:25.049Z,87.33
2016-12-01T08:08:33.730Z,86.95
2016-12-01T08:09:42.436Z,87.24
2016-12-01T08:10:51.118Z,87.33
2016-12-01T08:11:59.800Z,87.43
2016-12-01T08:13:08.481Z,87.43
2016-12-01T08:14:17.172Z,87.33
2016-12-01T08:15:25.855Z,87.33
2016-12-01T08:16:34.551Z,87.8
2016-12-01T08:17:43.239Z,87.71
2016-12-01T08:18:52.246Z,87.14
2016-12-01T08:20:00.930Z,87.24
2016-12-01T08:21:09.640Z,87.43
2016-12-01T08:22:18.320Z,87.71
2016-12-01T08:23:27.005Z,87.8
2016-12-01T08:24:35.686Z,87.52
2016-12-01T08:25:44.371Z,87.43
2016-12-01T08:26:53.056Z,87.14
2016-12-01T08:28:01.739Z,86.57
2016-12-01T08:29:10.427Z,86.76
2016-12-01T08:30:19.120Z,87.71
2016-12-01T08:31:27.802Z,87.43
2016-12-01T08:32:36.486Z,87.9
2016-12-01T08:33:45.169Z,87.8
2016-12-01T08:34:53.883Z,87.99
2016-12-01T08:36:02.563Z,87.52
2016-12-01T08:37:11.247Z,87.9
2016-12-01T08:38:19.930Z,87.71
2016-12-01T08:39:28.613Z,87.52
2016-12-01T08:40:37.300Z,87.99
2016-12-01T08:41:45.983Z,87.71
2016-12-01T08:42:54.668Z,87.14
2016-12-01T08:44:03.350Z,87.24
2016-12-01T08:45:12.028Z,86.86
2016-12-01T08:46:20.709Z,86.86
2016-12-01T08:47:29.403Z,86.86
2016-12-01T08:48:38.102Z,86.67
2016-12-01T08:49:46.787Z,86.67
2016-12-01T08:50:55.469Z,87.05
2016-12-01T08:52:04.155Z,87.24
2016-12-01T08:53:12.841Z,87.62
2016-12-01T08:54:21.522Z,87.9
2016-12-01T08:55:30.202Z,89.03
2016-12-01T08:56:38.887Z,89.22
2016-12-01T08:57:47.574Z,89.4
2016-12-01T08:58:56.257Z,89.97
2016-12-01T09:00:04.948Z,90.82
2016-12-01T09:01:13.642Z,91.11
2016-12-01T09:02:22.641Z,91.39
2016-12-01T09:03:31.325Z,91.58
2016-12-01T09:04:40.008Z,90.73
2016-12-01T09:05:48.698Z,90.16
2016-12-01T09:06:57.379Z,89.4
2016-12-01T09:08:06.071Z,89.59
2016-12-01T09:09:14.758Z,89.5
2016-12-01T09:10:23.441Z,89.4
2016-12-01T09:11:32.126Z,89.97
2016-12-01T09:12:40.812Z,91.01
2016-12-01T09:13:49.498Z,91.77
2016-12-01T09:14:58.187Z,90.87
2016-12-01T09:16:06.878Z,89.36
2016-12-01T09:17:15.566Z,89.26
2016-12-01T09:18:24.248Z,89.64
2016-12-01T09:19:32.936Z,90.02
2016-12-01T09:20:41.629Z,90.82
2016-12-01T09:21:50.318Z,91.01
2016-12-01T09:22:59.004Z,90.54
2016-12-01T09:24:07.687Z,90.07
2016-12-01T09:25:16.370Z,90.21
2016-12-01T09:26:25.063Z,90.35
2016-12-01T09:27:33.749Z,90.45
2016-12-01T09:28:42.431Z,91.39
2016-12-01T09:29:51.141Z,91.11
2016-12-01T09:30:59.826Z,91.63
2016-12-01T09:32:08.507Z,91.39
2016-12-01T09:33:17.514Z,91.2
2016-12-01T09:34:26.192Z,91.96
2016-12-01T09:35:34.885Z,92.33
2016-12-01T09:36:43.577Z,92.14
2016-12-01T09:37:52.268Z,91.96
2016-12-01T09:39:00.958Z,92.14
2016-12-01T09:40:09.678Z,91.67
2016-12-01T09:41:18.361Z,91.3
2016-12-01T09:42:27.044Z,91.58
2016-12-01T09:43:35.726Z,91.67
2016-12-01T09:44:44.410Z,91.15
2016-12-01T09:45:53.096Z,90.02
2016-12-01T09:47:01.785Z,89.92
2016-12-01T09:48:10.511Z,89.54
2016-12-01T09:49:19.194Z,88.7
2016-12-01T09:50:27.879Z,89.45
2016-12-01T09:51:36.566Z,89.45
2016-12-01T09:52:45.248Z,89.36
2016-12-01T09:53:53.932Z,89.45
2016-12-01T09:55:02.619Z,89.45
2016-12-01T09:56:11.300Z,88.98
2016-12-01T09:57:19.980Z,88.89
2016-12-01T09:58:28.659Z,89.07
2016-12-01T09:59:37.345Z,88.51
2016-12-01T10:00:46.031Z,87.94
2016-12-01T10:01:54.718Z,87.75
2016-12-01T10:03:03.405Z,88.42
2016-12-01T10:04:12.090Z,89.54
2016-12-01T10:05:20.776Z,89.92
2016-12-01T10:06:29.461Z,90.49
2016-12-01T10:07:38.149Z,90.59
2016-12-01T10:08:46.834Z,90.21
2016-12-01T10:09:55.513Z,89.45
2016-12-01T10:11:04.204Z,89.26
2016-12-01T10:12:12.893Z,88.89
2016-12-01T10:13:21.586Z,89.45
2016-12-01T10:14:30.278Z,89.26
2016-12-01T10:15:38.969Z,88.23
2016-12-01T10:16:47.681Z,87.47
2016-12-01T10:17:56.369Z,87.04
2016-12-01T10:19:05.053Z,86.1
2016-12-01T10:20:13.740Z,85.53
2016-12-01T10:21:22.451Z,83.73
2016-12-01T10:22:31.133Z,83.92
2016-12-01T10:23:39.820Z,84.86
2016-12-01T10:24:48.839Z,84.68
2016-12-01T10:25:57.519Z,83.92
2016-12-01T10:27:06.202Z,83.54
2016-12-01T10:28:14.881Z,82.88
2016-12-01T10:29:23.567Z,81.93
2016-12-01T10:30:32.252Z,80.94
2016-12-01T10:31:40.943Z,80.08
2016-12-01T10:32:49.707Z,79.9
2016-12-01T10:33:58.396Z,77.86
2016-12-01T10:35:07.078Z,77.2
2016-12-01T10:36:15.767Z,75.87
2016-12-01T10:37:24.454Z,75.31
2016-12-01T10:38:33.141Z,75.31
2016-12-01T10:39:41.826Z,75.87
2016-12-01T10:40:50.541Z,76.06
2016-12-01T10:41:59.278Z,76.15
2016-12-01T10:43:07.966Z,76.34
2016-12-01T10:44:16.651Z,76.34
2016-12-01T10:45:25.337Z,77.01
2016-12-01T10:46:34.029Z,78.23
2016-12-01T10:47:42.720Z,79.61
2016-12-01T10:48:51.403Z,80.18
2016-12-01T10:50:00.087Z,80.37
2016-12-01T10:51:08.779Z,79.24
2016-12-01T10:52:17.472Z,78.39
2016-12-01T10:53:26.172Z,77.39
2016-12-01T10:54:34.861Z,77.76
2016-12-01T10:55:43.543Z,76.06
2016-12-01T10:56:52.235Z,74.87
2016-12-01T10:58:00.931Z,74.21
2016-12-01T10:59:09.626Z,73.45
2016-12-01T11:00:18.313Z,72.03
2016-12-01T11:01:27.001Z,71.12
2016-12-01T11:02:35.711Z,69.51
2016-12-01T11:03:44.400Z,69.41
2016-12-01T11:04:53.089Z,69.41
2016-12-01T11:06:01.809Z,71.31
2016-12-01T11:07:10.500Z,73.16
2016-12-01T11:08:19.192Z,74.26
2016-12-01T11:09:27.878Z,75.78
2016-12-01T11:10:36.570Z,76.91
2016-12-01T11:11:45.265Z,77.48
2016-12-01T11:12:53.965Z,78.01
2016-12-01T11:14:02.656Z,78.58
2016-12-01T11:15:11.664Z,79.33
2016-12-01T11:16:20.364Z,79.9
2016-12-01T11:17:29.049Z,80.18
2016-12-01T11:18:37.734Z,80.46
2016-12-01T11:19:46.475Z,80.46
2016-12-01T11:20:55.164Z,80.37
2016-12-01T11:22:03.850Z,79.52
2016-12-01T11:23:12.537Z,79.99
2016-12-01T11:24:21.236Z,81.32
2016-12-01T11:25:29.924Z,82.41
2016-12-01T11:26:38.608Z,83.92
2016-12-01T11:27:47.393Z,83.83
2016-12-01T11:28:56.080Z,84.11
2016-12-01T11:30:04.775Z,84.49
2016-12-01T11:31:13.466Z,84.39
2016-12-01T11:32:22.152Z,84.11
2016-12-01T11:36:27.341Z,84.35
2016-12-01T11:37:36.360Z,84.54
2016-12-01T11:38:45.045Z,84.54
2016-12-01T11:39:53.779Z,84.82
2016-12-01T11:41:02.470Z,84.73
2016-12-01T11:42:11.151Z,85.77
2016-12-01T11:43:19.840Z,86.05
2016-12-01T11:44:28.839Z,86.9
2016-12-01T11:45:37.574Z,86.99
2016-12-01T11:46:46.259Z,86.05
2016-12-01T11:47:55.261Z,86.99
2016-12-01T11:49:03.948Z,87.56
2016-12-01T11:50:12.958Z,87.28
2016-12-01T11:51:21.705Z,87.47
2016-12-01T11:52:30.386Z,87.47
2016-12-01T11:53:39.069Z,87.47
2016-12-01T11:54:47.751Z,87.56
2016-12-01T11:55:56.435Z,87.75
2016-12-01T11:57:05.167Z,86.9
2016-12-01T11:58:13.853Z,85.24
2016-12-01T11:59:22.535Z,84.2
2016-12-01T12:00:31.221Z,83.73
2016-12-01T12:01:39.913Z,83.83
2016-12-01T12:02:48.696Z,82.98
2016-12-01T12:03:57.386Z,83.17
2016-12-01T12:05:06.075Z,82.98
2016-12-01T12:06:14.772Z,83.64
2016-12-01T12:07:23.569Z,84.01
2016-12-01T12:08:32.301Z,83.83
2016-12-01T12:09:40.988Z,84.39
2016-12-01T12:10:49.673Z,83.64
2016-12-01T12:11:58.361Z,82.6
2016-12-01T12:13:07.048Z,82.69
2016-12-01T12:14:15.740Z,82.88
2016-12-01T12:15:24.427Z,83.73
2016-12-01T12:16:33.114Z,83.26
2016-12-01T12:17:41.800Z,84.77
2016-12-01T12:18:50.523Z,84.3
2016-12-01T12:19:59.212Z,84.86
2016-12-01T12:21:07.897Z,84.86
2016-12-01T12:22:16.585Z,86.19
2016-12-01T12:23:25.268Z,86.66
2016-12-01T12:24:33.949Z,87.32
2016-12-01T12:25:42.638Z,86.9
2016-12-01T12:26:51.329Z,87.47
2016-12-01T12:28:00.042Z,87.94
2016-12-01T12:29:08.723Z,86.99
2016-12-01T12:30:17.414Z,86.9
2016-12-01T12:31:26.097Z,86.9
2016-12-01T12:32:34.785Z,86.9
2016-12-01T12:33:43.470Z,86.15
2016-12-01T12:34:52.149Z,85.96
2016-12-01T12:36:00.834Z,86.05
2016-12-01T12:37:09.518Z,87.28
2016-12-01T12:38:18.197Z,87.09
2016-12-01T12:39:26.884Z,87.56
2016-12-01T12:40:35.569Z,88.13
2016-12-01T12:41:44.251Z,87.56
2016-12-01T12:42:52.936Z,87.56
2016-12-01T12:44:01.638Z,87.56
2016-12-01T12:45:10.321Z,86.71
2016-12-01T12:46:19.029Z,87.28
2016-12-01T12:47:27.717Z,87.18
2016-12-01T12:48:36.403Z,87.47
2016-12-01T12:49:45.092Z,88.32
2016-12-01T12:50:53.776Z,87.66
2016-12-01T12:52:02.463Z,87.85
2016-12-01T12:53:11.141Z,87.94
2016-12-01T12:54:19.823Z,88.51
2016-12-01T12:55:28.504Z,88.51
2016-12-01T12:56:37.188Z,88.04
2016-12-01T12:57:45.879Z,87.56
2016-12-01T12:58:54.564Z,88.04
2016-12-01T13:00:03.247Z,87.9
2016-12-01T13:01:11.937Z,88.7
2016-12-01T13:02:20.624Z,89.12
2016-12-01T13:03:29.307Z,89.22
2016-12-01T13:04:37.992Z,88.84
2016-12-01T13:05:46.698Z,88.75
2016-12-01T13:06:55.713Z,89.78
2016-12-01T13:08:04.397Z,89.64
2016-12-01T13:09:13.076Z,89.59
2016-12-01T13:10:21.757Z,90.11
2016-12-01T13:11:30.441Z,89.4
2016-12-01T13:12:39.125Z,89.54
2016-12-01T13:13:47.825Z,89.64
2016-12-01T13:14:56.535Z,89.64
2016-12-01T13:16:05.219Z,89.88
2016-12-01T13:17:13.904Z,90.45
2016-12-01T13:18:22.601Z,90.73
2016-12-01T13:19:31.607Z,91.2
2016-12-01T13:20:40.294Z,91.96
2016-12-01T13:21:48.980Z,91.77
2016-12-01T13:22:57.662Z,91.58
2016-12-01T13:24:06.347Z,91.2
2016-12-01T13:25:15.026Z,91.01
2016-12-01T13:26:23.712Z,91.01
2016-12-01T13:27:32.433Z,91.49
2016-12-01T13:28:41.116Z,91.58
2016-12-01T13:29:49.827Z,91.3
2016-12-01T13:30:58.513Z,92.14
2016-12-01T13:32:07.194Z,92.33
2016-12-01T13:33:15.881Z,92.8
2016-12-01T13:34:24.570Z,93.18
2016-12-01T13:35:33.278Z,93.66
2016-12-01T13:36:41.960Z,93.37
2016-12-01T13:37:50.643Z,93.75
2016-12-01T13:38:59.332Z,94.6
2016-12-01T13:40:08.014Z,94.7
2016-12-01T13:41:16.725Z,94.6
2016-12-01T13:42:25.412Z,93.56
2016-12-01T13:43:34.094Z,92.33
2016-12-01T13:44:42.774Z,91.39
2016-12-01T13:45:51.452Z,90.21
2016-12-01T13:47:00.132Z,89.64
2016-12-01T13:48:08.815Z,88.98
2016-12-01T13:49:17.505Z,88.7
2016-12-01T13:50:26.186Z,88.7
2016-12-01T13:51:34.865Z,89.54
2016-12-01T13:52:43.541Z,90.64
2016-12-01T13:53:52.233Z,91.01
2016-12-01T13:55:00.928Z,91.49
2016-12-01T13:56:09.612Z,92.52
2016-12-01T13:57:20.378Z,92.24
2016-12-01T13:58:29.057Z,92.61
2016-12-01T13:59:37.743Z,92.33
2016-12-01T14:00:46.449Z,92.33
2016-12-01T14:01:55.130Z,92.99
2016-12-01T14:03:03.813Z,92.43
2016-12-01T14:04:12.495Z,92.33
2016-12-01T14:05:21.175Z,92.8
2016-12-01T14:06:29.861Z,93.37
2016-12-01T14:07:38.543Z,92.71
2016-12-01T14:08:47.235Z,92.52
2016-12-01T14:09:55.917Z,93.09
2016-12-01T14:11:04.602Z,92.71
2016-12-01T14:12:13.285Z,91.96
2016-12-01T14:13:22.006Z,91.58
2016-12-01T14:14:30.691Z,91.49
2016-12-01T14:15:39.372Z,91.3
2016-12-01T14:16:48.053Z,91.49
2016-12-01T14:17:56.734Z,92.05
2016-12-01T14:19:05.424Z,91.86
2016-12-01T14:20:14.109Z,92.05
2016-12-01T14:21:22.791Z,91.11
2016-12-01T14:22:31.474Z,91.96
2016-12-01T14:23:40.161Z,91.11
2016-12-01T14:24:48.844Z,91.01
2016-12-01T14:25:57.527Z,91.2
2016-12-01T14:27:06.207Z,91.67
2016-12-01T14:28:14.894Z,92.05
2016-12-01T14:29:23.576Z,92.05
2016-12-01T14:30:32.260Z,91.77
2016-12-01T14:31:40.947Z,91.11
2016-12-01T14:32:49.631Z,90.45
2016-12-01T14:33:58.315Z,89.78
2016-12-01T14:35:07.008Z,89.36
2016-12-01T14:36:16.008Z,89.17
2016-12-01T14:37:24.691Z,89.07
2016-12-01T14:38:33.370Z,87.94
2016-12-01T14:39:42.056Z,87.94
2016-12-01T14:40:50.735Z,87.47
2016-12-01T14:41:59.415Z,87.66
2016-12-01T14:43:08.107Z,87.28
2016-12-01T14:44:16.792Z,86.62
2016-12-01T14:45:25.473Z,86.9
2016-12-01T14:46:34.479Z,86.9
2016-12-01T14:47:43.162Z,87.47
2016-12-01T14:48:51.847Z,87.37
2016-12-01T14:50:00.533Z,88.13
2016-12-01T14:51:09.248Z,88.32